Nearby METAR Reports

 

KTAN - Taunton, Massachusetts, USA
Distance from station: W 5mi, 8km
Updated: Fri, 26-Feb-2021 4:52pm EST
Clear
Clear
 Wind from SW
Wind: SW 7 mph , 11 km/h
Temperature: 39°F , 4°C
Wind Chill: 34°F , 1°C
Dew Point: 19°F , -7°C
Humidity: 45%
Barometer: 30.47 inHg , 1031.8 hPa
Clouds: Clear
Visibility: 10 miles , 16 km
2021/02/26 21:52 KTAN 262152Z AUTO 23006KT 10SM CLR 04/M07 A3047 RMK AO2 SLP318 T00391067
KPYM - Plymouth, Massachusetts, USA
Distance from station: ENE 10mi, 16km
Updated: Fri, 26-Feb-2021 4:52pm EST
Clear
Clear
 Wind from ESE
Wind: ESE 7 mph , 11 km/h
Temperature: 36°F , 2°C
Wind Chill: 30°F , -1°C
Dew Point: 19°F , -7°C
Humidity: 52%
Barometer: 30.47 inHg , 1031.8 hPa
Clouds: Clear
Visibility: 10 miles , 16 km
2021/02/26 21:52 KPYM 262152Z AUTO 12006KT 10SM CLR 02/M07 A3047 RMK AO2 SLP318 T00221072
 
KEWB - New Bedford, Massachusetts, USA
Distance from station: S 14mi, 23km
Updated: Fri, 26-Feb-2021 4:53pm EST
Clear
Clear
 Wind from SW
Wind: SW 13 mph , 20 km/h
Temperature: 39°F , 4°C
Wind Chill: 31°F , -1°C
Dew Point: 19°F , -7°C
Humidity: 45%
Barometer: 30.47 inHg , 1031.8 hPa
Clouds: Clear
Visibility: 10 miles , 16 km
2021/02/26 21:53 KEWB 262153Z 23011KT 10SM CLR 04/M07 A3047 RMK AO2 SLP319 T00391072
KGHG - Marshfield, Massachusetts, USA
Distance from station: NE 20mi, 31km
Updated: Fri, 26-Feb-2021 5:15pm EST
Clear
Clear
 Wind from ESE
Wind: ESE 5 mph , 7 km/h
Temperature: 34°F , 1°C
Wind Chill: 29°F , -2°C
Dew Point: 21°F , -6°C
Humidity: 60%
Barometer: 30.50 inHg , 1032.8 hPa
Clouds: Clear
Visibility: 10 miles , 16 km
2021/02/26 22:15 KGHG 262215Z AUTO 12004KT 10SM CLR 01/M06 A3050 RMK AO2
 
KOWD - Norwood, Massachusetts, USA
Distance from station: NNW 24mi, 39km
Updated: Fri, 26-Feb-2021 4:53pm EST
Clear
Clear
 Wind from W
Wind: W 5 mph , 7 km/h
Temperature: 41°F , 5°C
Wind Chill: 38°F , 3°C
Dew Point: 16°F , -9°C
Humidity: 36%
Barometer: 30.47 inHg , 1031.8 hPa
Clouds: Clear
Visibility: 10 miles , 16 km
2021/02/26 21:53 KOWD 262153Z 28004KT 10SM CLR 05/M09 A3047 RMK AO2 SLP320 T00501094
KMQE - East Milton, Massachusetts, USA
Distance from station: NNW 25mi, 40km
Updated: Fri, 26-Feb-2021 4:51pm EST

 Wind from W
Wind: W 8 mph , 13 km/h
Temperature: 36°F , 2°C
Wind Chill: 30°F , -1°C
Dew Point: 16°F , -9°C
Humidity: 44%
Barometer: 30.44 inHg , 1030.8 hPa
2021/02/26 21:51 KMQE 262151Z AUTO 27007KT 02/M09 A3044 RMK AO1 SLP326 T00221094
 
KFMH - Falmouth/Otis Ab, Massachusetts, USA
Distance from station: SE 27mi, 44km
Updated: Fri, 26-Feb-2021 4:45pm EST
Clear
Clear
 Wind from ESE
Wind: ESE 6 mph , 9 km/h
Temperature: 34°F , 1°C
Wind Chill: 29°F , -2°C
Dew Point: 21°F , -6°C
Humidity: 60%
Barometer: 30.48 inHg , 1032.2 hPa
Clouds: Clear
Visibility: 10 miles , 16 km
2021/02/26 21:45 KFMH 262145Z 12005KT 10SM CLR 01/M06 A3048
KPVD - Providence/Green, Rhode Island, USA
Distance from station: WSW 29mi, 47km
Updated: Fri, 26-Feb-2021 4:51pm EST
Mostly cloudy
Mostly cloudy
 Wind from S
Wind: S 7 mph , 11 km/h
Temperature: 39°F , 4°C
Wind Chill: 34°F , 1°C
Dew Point: 25°F , -4°C
Humidity: 56%
Barometer: 30.47 inHg , 1031.8 hPa
Clouds: Mostly cloudy
Visibility: 10 miles , 16 km
Cloud details: Mostly cloudy 25000 ft
2021/02/26 21:51 KPVD 262151Z 17006KT 10SM BKN250 04/M04 A3047 RMK AO2 SLP317 T00391039
 
KSFZ - Pawtucket, Rhode Island, USA
Distance from station: W 30mi, 48km
Updated: Fri, 26-Feb-2021 4:56pm EST
Clear
Clear
 Wind from SSE
Wind: SSE 3 mph , 6 km/h
Temperature: 37°F , 3°C
Dew Point: 23°F , -5°C
Humidity: 56%
Barometer: 30.46 inHg , 1031.5 hPa
Clouds: Clear
Visibility: 10 miles , 16 km
2021/02/26 21:56 KSFZ 262156Z AUTO 15003KT 10SM CLR 03/M05 A3046 RMK AO2 SLP263 T00281050 $
KUUU - Newport, Rhode Island, USA
Distance from station: SW 31mi, 50km
Updated: Fri, 26-Feb-2021 4:53pm EST
Clear
Clear
 Wind from SSW
Wind: SSW 7 mph , 11 km/h
Temperature: 36°F , 2°C
Wind Chill: 30°F , -1°C
Dew Point: 25°F , -4°C
Humidity: 65%
Barometer: 30.47 inHg , 1031.8 hPa
Clouds: Clear
Visibility: 10 miles , 16 km
2021/02/26 21:53 KUUU 262153Z AUTO 20006KT 10SM CLR 02/M04 A3047 RMK AO2 SLP317 T00221044
 
KOQU - N. Kingston/Quon, Rhode Island, USA
Distance from station: SW 32mi, 52km
Updated: Fri, 26-Feb-2021 4:50pm EST
Mostly cloudy
Mostly cloudy
 Wind from SSW
Wind: SSW 15 mph , 24 km/h
Barometer: 30.46 inHg , 1031.5 hPa
Clouds: Mostly cloudy
Visibility: 10 miles , 16 km
Cloud details: Few Clouds 6000 ft
Mostly cloudy 25000 ft
2021/02/26 21:50 KOQU 262150Z 21013KT 10SM FEW060 BKN250 A3046
KBOS - Boston, Massachusetts, USA
Distance from station: N 33mi, 54km
Updated: Fri, 26-Feb-2021 4:54pm EST
Partly cloudy
Partly cloudy
 Wind from ESE
Wind: ESE 14 mph , 22 km/h
Temperature: 34°F , 1°C
Wind Chill: 25°F , -4°C
Dew Point: 21°F , -6°C
Humidity: 60%
Barometer: 30.49 inHg , 1032.5 hPa
Clouds: Partly cloudy
Visibility: 10 miles , 16 km
Cloud details: Few Clouds 22000 ft
Partly cloudy 25000 ft
2021/02/26 21:54 KBOS 262154Z 11012KT 10SM FEW220 SCT250 01/M06 A3049 RMK AO2 SLP323 T00111056
 
KHYA - Hyannis, Massachusetts, USA
Distance from station: ESE 37mi, 59km
Updated: Fri, 26-Feb-2021 4:56pm EST
Clear
Clear
 Wind from S
Wind: S 5 mph , 7 km/h
Temperature: 36°F , 2°C
Wind Chill: 32°F , 0°C
Dew Point: 21°F , -6°C
Humidity: 56%
Barometer: 30.48 inHg , 1032.2 hPa
Clouds: Clear
Visibility: 10 miles , 16 km
2021/02/26 21:56 KHYA 262156Z 17004KT 10SM CLR 02/M06 A3048 RMK AO2 SLP323 T00171061
KMVY - Marthas Vineyard, Massachusetts, USA
Distance from station: SSE 37mi, 60km
Updated: Fri, 26-Feb-2021 4:53pm EST
Clear
Clear
 Wind from SW
Wind: SW 6 mph , 9 km/h
Temperature: 36°F , 2°C
Wind Chill: 31°F , -1°C
Dew Point: 23°F , -5°C
Humidity: 60%
Barometer: 30.48 inHg , 1032.2 hPa
Clouds: Clear
Visibility: 10 miles , 16 km
2021/02/26 21:53 KMVY 262153Z 22005KT 10SM CLR 02/M05 A3048 RMK AO2 SLP324 T00221050
 
KPVC - Provincetown, Massachusetts, USA
Distance from station: ENE 38mi, 61km
Updated: Fri, 26-Feb-2021 4:56pm EST
Clear
Clear
 Wind from ENE
Wind: ENE 3 mph , 6 km/h
Temperature: 34°F , 1°C
Dew Point: 19°F , -7°C
Humidity: 56%
Barometer: 30.52 inHg , 1033.5 hPa
Clouds: Clear
Visibility: 10 miles , 16 km
2021/02/26 21:56 KPVC 262156Z AUTO 06003KT 10SM CLR 01/M07 A3052 RMK AO2 SLP333 T00061072 FZRANO PNO $
KBED - Bedford, Massachusetts, USA
Distance from station: NNW 44mi, 72km
Updated: Fri, 26-Feb-2021 4:51pm EST
Clear
Clear
 Wind from SSW
Wind: SSW 6 mph , 9 km/h
Temperature: 39°F , 4°C
Wind Chill: 35°F , 2°C
Dew Point: 16°F , -9°C
Humidity: 39%
Barometer: 30.46 inHg , 1031.5 hPa
Clouds: Clear
Visibility: 10 miles , 16 km
2021/02/26 21:51 KBED 262151Z 21005KT 10SM CLR 04/M09 A3046 RMK AO2 SLP330 T00391089
 
KBVY - Beverly, Massachusetts, USA
Distance from station: 0 48mi, 77km
Updated: Fri, 26-Feb-2021 4:53pm EST
Clear
Clear
 Wind from SE
Wind: SE 8 mph , 13 km/h
Temperature: 36°F , 2°C
Wind Chill: 30°F , -1°C
Dew Point: 19°F , -7°C
Humidity: 52%
Barometer: 30.47 inHg , 1031.8 hPa
Clouds: Clear
Visibility: 10 miles , 16 km
2021/02/26 21:53 KBVY 262153Z 13007KT 10SM CLR 02/M07 A3047 RMK AO2 SLP317 T00221067
KCQX - Chatham, Massachusetts, USA
Distance from station: ESE 49mi, 80km
Updated: Fri, 26-Feb-2021 4:52pm EST
Clear
Clear
 Wind from ESE
Wind: ESE 5 mph , 7 km/h
Temperature: 34°F , 1°C
Wind Chill: 29°F , -2°C
Dew Point: 19°F , -7°C
Humidity: 56%
Barometer: 30.52 inHg , 1033.5 hPa
Clouds: Clear
Visibility: 10 miles , 16 km
2021/02/26 21:52 KCQX 262152Z AUTO 12004KT 10SM CLR 01/M07 A3052 RMK AO2 SLP337 T00111072